createdAt,value
2019-04-04T00:00:50.282Z,94.45
2019-04-04T00:03:23.762Z,94.90
2019-04-04T00:05:56.616Z,94.61
2019-04-04T00:08:31.749Z,94.39
2019-04-04T00:11:06.073Z,94.64
2019-04-04T00:13:42.086Z,94.77
2019-04-04T00:16:16.672Z,94.94
2019-04-04T00:18:52.866Z,94.81
2019-04-04T00:21:27.630Z,94.91
2019-04-04T00:24:01.030Z,95.17
2019-04-04T00:26:35.347Z,94.96
2019-04-04T00:29:08.363Z,95.14
2019-04-04T00:31:42.382Z,95.48
2019-04-04T00:34:17.518Z,96.02
2019-04-04T00:36:51.577Z,95.98
2019-04-04T00:39:24.654Z,94.88
2019-04-04T00:41:57.825Z,94.84
2019-04-04T00:44:31.471Z,94.30
2019-04-04T00:47:06.112Z,94.92
2019-04-04T00:49:39.129Z,94.71
2019-04-04T00:52:11.887Z,94.92
2019-04-04T00:54:45.541Z,94.60
2019-04-04T00:57:20.127Z,95.13
2019-04-04T00:59:55.104Z,95.16
2019-04-04T01:02:30.618Z,95.13
2019-04-04T01:07:46.076Z,95.51
2019-04-04T01:10:19.645Z,95.50
2019-04-04T01:12:54.946Z,95.65
2019-04-04T01:15:31.789Z,96.19
2019-04-04T01:18:06.151Z,96.87
2019-04-04T01:20:41.341Z,96.06
2019-04-04T01:23:14.522Z,96.20
2019-04-04T01:25:48.832Z,96.96
2019-04-04T01:28:24.731Z,97.08
2019-04-04T01:30:58.656Z,96.92
2019-04-04T01:33:32.434Z,97.63
2019-04-04T01:36:06.850Z,97.97
2019-04-04T01:38:40.539Z,98.37
2019-04-04T01:41:13.275Z,97.95
2019-04-04T01:43:46.750Z,97.71
2019-04-04T01:46:21.488Z,97.51
2019-04-04T01:48:56.736Z,98.21
2019-04-04T01:51:30.589Z,98.00
2019-04-04T01:54:04.092Z,97.92
2019-04-04T01:56:37.039Z,98.08
2019-04-04T01:59:12.274Z,98.58
2019-04-04T02:01:47.428Z,98.19
2019-04-04T02:04:24.555Z,98.00
2019-04-04T02:06:59.000Z,98.21
2019-04-04T02:09:34.589Z,98.15
2019-04-04T02:12:09.635Z,98.18
2019-04-04T02:14:43.577Z,98.69
2019-04-04T02:17:20.136Z,99.19
2019-04-04T02:19:56.340Z,98.85
2019-04-04T02:22:31.106Z,98.87
2019-04-04T02:25:07.943Z,98.74
2019-04-04T02:27:40.679Z,98.79
2019-04-04T02:30:16.743Z,98.87
2019-04-04T02:32:49.765Z,99.13
2019-04-04T02:35:25.815Z,99.19
2019-04-04T02:38:02.176Z,98.50
2019-04-04T02:40:35.416Z,98.92
2019-04-04T02:43:09.112Z,99.62
2019-04-04T02:45:43.939Z,99.60
2019-04-04T02:48:17.907Z,99.52
2019-04-04T02:50:51.235Z,99.55
2019-04-04T02:53:25.318Z,98.65
2019-04-04T02:56:03.243Z,98.88
2019-04-04T02:58:35.321Z,98.04
2019-04-04T03:01:07.698Z,98.42
2019-04-04T03:03:42.391Z,98.18
2019-04-04T03:06:15.215Z,98.11
2019-04-04T03:08:48.281Z,97.30
2019-04-04T03:11:22.119Z,96.98
2019-04-04T03:13:56.445Z,97.12
2019-04-04T03:16:29.933Z,97.58
2019-04-04T03:19:02.003Z,97.46
2019-04-04T03:21:35.008Z,97.56
2019-04-04T03:24:09.019Z,97.79
2019-04-04T03:26:44.723Z,97.72
2019-04-04T03:29:18.195Z,97.88
2019-04-04T03:31:51.984Z,97.51
2019-04-04T03:34:26.622Z,97.42
2019-04-04T03:37:06.595Z,97.88
2019-04-04T03:39:40.000Z,98.08
2019-04-04T03:42:13.638Z,98.06
2019-04-04T03:44:46.323Z,98.33
2019-04-04T03:47:19.697Z,97.98
2019-04-04T03:49:57.630Z,98.42
2019-04-04T03:52:29.347Z,97.99
2019-04-04T03:55:02.576Z,98.35
2019-04-04T03:57:34.694Z,98.64
2019-04-04T04:00:09.610Z,98.90
2019-04-04T04:02:49.713Z,99.32
2019-04-04T04:05:27.662Z,98.91
2019-04-04T04:08:00.775Z,97.84
2019-04-04T04:10:34.082Z,98.32
2019-04-04T04:13:07.102Z,97.48
2019-04-04T04:15:40.541Z,98.30
2019-04-04T04:18:11.868Z,97.96
2019-04-04T04:20:45.039Z,97.83
2019-04-04T04:23:23.799Z,98.47
2019-04-04T04:25:57.939Z,98.94
2019-04-04T04:28:36.106Z,98.55
2019-04-04T04:31:14.295Z,99.23
2019-04-04T04:33:44.846Z,99.15
2019-04-04T04:36:16.471Z,99.52
2019-04-04T04:38:58.975Z,99.94
2019-04-04T04:41:30.358Z,100.00
2019-04-04T04:44:05.604Z,100.00
2019-04-04T04:46:40.696Z,100.00
2019-04-04T04:49:14.790Z,100.00
2019-04-04T04:51:48.835Z,100.00
2019-04-04T04:54:24.484Z,100.00
2019-04-04T04:57:03.389Z,100.00
2019-04-04T04:59:36.053Z,99.90
2019-04-04T05:02:10.793Z,100.00
2019-04-04T05:04:48.160Z,99.69
2019-04-04T05:07:21.962Z,100.00
2019-04-04T05:09:55.942Z,100.00
2019-04-04T05:12:29.355Z,100.00
2019-04-04T05:15:02.018Z,100.00
2019-04-04T05:17:34.808Z,99.46
2019-04-04T05:20:14.340Z,100.00
2019-04-04T05:22:49.773Z,99.24
2019-04-04T05:25:24.744Z,99.42
2019-04-04T05:27:58.030Z,99.17
2019-04-04T05:30:34.256Z,99.64
2019-04-04T05:33:08.521Z,99.67
2019-04-04T05:35:41.334Z,98.41
2019-04-04T05:38:14.441Z,98.41
2019-04-04T05:40:47.845Z,98.81
2019-04-04T05:43:23.946Z,98.82
2019-04-04T05:46:00.582Z,99.06
2019-04-04T05:48:36.415Z,98.76
2019-04-04T05:51:11.031Z,98.61
2019-04-04T05:53:44.679Z,97.96
2019-04-04T05:56:18.415Z,98.40
2019-04-04T05:58:53.113Z,98.27
2019-04-04T06:01:27.032Z,97.73
2019-04-04T06:03:59.385Z,97.90
2019-04-04T06:06:33.394Z,97.49
2019-04-04T06:09:13.958Z,97.27
2019-04-04T06:11:48.518Z,97.67
2019-04-04T06:14:20.775Z,96.55
2019-04-04T06:16:54.265Z,96.79
2019-04-04T06:19:27.541Z,96.41
2019-04-04T06:22:00.754Z,96.55
2019-04-04T06:24:32.310Z,96.35
2019-04-04T06:27:10.654Z,95.66
2019-04-04T06:29:47.662Z,95.00
2019-04-04T06:32:21.655Z,95.05
2019-04-04T06:34:56.724Z,94.19
2019-04-04T06:37:30.819Z,95.01
2019-04-04T06:40:04.574Z,94.45
2019-04-04T06:42:40.555Z,94.20
2019-04-04T06:45:16.161Z,93.46
2019-04-04T06:47:50.272Z,93.40
2019-04-04T06:50:23.416Z,92.45
2019-04-04T06:52:56.954Z,92.80
2019-04-04T06:55:30.348Z,91.34
2019-04-04T06:58:03.947Z,91.54
2019-04-04T07:00:42.029Z,91.80
2019-04-04T07:03:15.330Z,88.59
2019-04-04T07:05:50.230Z,88.72
2019-04-04T07:08:24.533Z,88.47
2019-04-04T07:11:02.761Z,88.13
2019-04-04T07:13:42.142Z,87.11
2019-04-04T07:16:11.899Z,86.60
2019-04-04T07:18:47.615Z,87.40
2019-04-04T07:21:21.518Z,86.69
2019-04-04T07:23:54.916Z,86.76
2019-04-04T07:26:27.582Z,86.48
2019-04-04T07:28:59.974Z,85.68
2019-04-04T07:31:35.077Z,85.68
2019-04-04T07:34:08.356Z,85.24
2019-04-04T07:36:41.534Z,84.17
2019-04-04T07:39:15.316Z,84.44
2019-04-04T07:41:49.008Z,84.16
2019-04-04T07:44:23.287Z,83.94
2019-04-04T07:46:57.551Z,84.14
2019-04-04T07:49:31.647Z,84.31
2019-04-04T07:52:03.387Z,83.46
2019-04-04T07:54:38.514Z,83.23
2019-04-04T07:57:12.789Z,81.79
2019-04-04T07:59:46.124Z,82.09
2019-04-04T08:02:20.931Z,81.04
2019-04-04T08:04:54.354Z,80.77
2019-04-04T08:07:26.029Z,79.85
2019-04-04T08:10:01.251Z,80.19
2019-04-04T08:12:36.514Z,79.42
2019-04-04T08:15:10.284Z,79.72
2019-04-04T08:17:44.127Z,78.72
2019-04-04T08:20:19.072Z,78.06
2019-04-04T08:22:52.980Z,77.54
2019-04-04T08:25:25.645Z,76.67
2019-04-04T08:27:58.935Z,75.11
2019-04-04T08:30:32.861Z,75.46
2019-04-04T08:33:08.174Z,74.80
2019-04-04T08:35:42.789Z,73.78
2019-04-04T08:38:16.326Z,74.01
2019-04-04T08:40:52.004Z,72.83
2019-04-04T08:43:26.555Z,72.17
2019-04-04T08:45:59.624Z,71.40
2019-04-04T08:48:33.035Z,71.46
2019-04-04T08:51:06.879Z,71.57
2019-04-04T08:53:40.681Z,71.53
2019-04-04T08:56:15.733Z,70.21
2019-04-04T08:58:51.559Z,69.78
2019-04-04T09:01:24.299Z,68.12
2019-04-04T09:04:00.164Z,68.15
2019-04-04T09:06:33.507Z,67.11
2019-04-04T09:09:07.235Z,65.64
2019-04-04T09:11:39.760Z,65.47
2019-04-04T09:14:12.763Z,64.95
2019-04-04T09:16:45.666Z,63.99
2019-04-04T09:19:19.118Z,63.77
2019-04-04T09:21:54.364Z,62.63
2019-04-04T09:24:28.162Z,63.75
2019-04-04T09:27:01.489Z,62.23
2019-04-04T09:29:33.527Z,62.56
2019-04-04T09:32:06.430Z,61.97
2019-04-04T09:34:40.168Z,61.38
2019-04-04T09:37:14.341Z,61.55
2019-04-04T09:39:48.368Z,61.37
2019-04-04T09:42:21.300Z,60.41
2019-04-04T09:44:54.799Z,59.44
2019-04-04T09:47:29.650Z,59.96
2019-04-04T09:50:02.414Z,60.13
2019-04-04T09:52:36.067Z,60.09
2019-04-04T09:55:08.476Z,59.66
2019-04-04T09:57:42.889Z,60.12
2019-04-04T10:00:19.946Z,59.03
2019-04-04T10:02:55.323Z,60.32
2019-04-04T10:05:28.581Z,59.69
2019-04-04T10:08:01.698Z,59.80
2019-04-04T10:10:35.407Z,59.93
2019-04-04T10:13:09.434Z,60.11
2019-04-04T10:15:42.243Z,61.43
2019-04-04T10:18:15.105Z,61.43
2019-04-04T10:20:48.935Z,60.75
2019-04-04T10:23:22.182Z,60.86
2019-04-04T10:25:55.008Z,61.84
2019-04-04T10:28:26.411Z,60.37
2019-04-04T10:30:58.798Z,60.60
2019-04-04T10:33:35.832Z,61.28
2019-04-04T10:36:08.548Z,61.93
2019-04-04T10:38:42.663Z,62.38
2019-04-04T10:41:15.568Z,63.02
2019-04-04T10:43:48.531Z,63.37
2019-04-04T10:46:23.655Z,63.49
2019-04-04T10:48:56.418Z,62.87
2019-04-04T10:51:29.467Z,62.75
2019-04-04T10:54:02.928Z,62.93
2019-04-04T10:56:38.034Z,62.61
2019-04-04T10:59:11.214Z,62.71
2019-04-04T11:01:44.008Z,62.88
2019-04-04T11:04:16.526Z,62.75
2019-04-04T11:06:51.726Z,62.94
2019-04-04T11:09:25.120Z,62.53
2019-04-04T11:11:59.452Z,62.72
2019-04-04T11:14:32.328Z,62.24
2019-04-04T11:17:05.447Z,61.70
2019-04-04T11:19:39.640Z,61.12
2019-04-04T11:22:14.764Z,63.02
2019-04-04T11:24:49.598Z,61.97
2019-04-04T11:27:23.105Z,61.74
2019-04-04T11:29:56.689Z,61.90
2019-04-04T11:32:30.395Z,61.13
2019-04-04T11:35:03.999Z,60.85
2019-04-04T11:37:37.779Z,60.43
2019-04-04T11:40:13.996Z,60.32
2019-04-04T11:42:47.643Z,60.28
2019-04-04T11:45:21.274Z,60.75
2019-04-04T11:47:54.298Z,60.98
2019-04-04T11:50:28.576Z,61.12
2019-04-04T11:53:02.246Z,61.13
2019-04-04T11:55:37.222Z,60.84
2019-04-04T11:58:10.268Z,61.47
2019-04-04T12:00:46.404Z,61.14
2019-04-04T12:03:20.585Z,60.82
2019-04-04T12:05:54.538Z,60.22
2019-04-04T12:08:28.798Z,60.30
2019-04-04T12:11:06.104Z,61.02
2019-04-04T12:13:39.759Z,60.74
2019-04-04T12:16:13.807Z,61.28
2019-04-04T12:18:47.527Z,61.24
2019-04-04T12:21:22.527Z,61.13
2019-04-04T12:23:55.937Z,61.26
2019-04-04T12:26:29.317Z,61.21
2019-04-04T12:29:03.111Z,61.11
2019-04-04T12:31:36.843Z,61.25
2019-04-04T12:34:10.260Z,60.02
2019-04-04T12:36:45.165Z,60.35
2019-04-04T12:39:18.821Z,60.25
2019-04-04T12:41:52.367Z,60.77
2019-04-04T12:44:26.156Z,60.31
2019-04-04T12:47:00.231Z,60.92
2019-04-04T12:49:34.600Z,61.72
2019-04-04T12:52:08.697Z,63.17
2019-04-04T12:54:42.120Z,62.85
2019-04-04T12:57:14.958Z,62.53
2019-04-04T12:59:47.065Z,61.80
2019-04-04T13:02:25.358Z,62.81
2019-04-04T13:04:59.405Z,62.62
2019-04-04T13:07:33.219Z,62.37
2019-04-04T13:10:11.894Z,62.65
2019-04-04T13:12:45.061Z,63.17
2019-04-04T13:15:18.738Z,62.41
2019-04-04T13:17:52.110Z,62.01
2019-04-04T13:20:25.878Z,61.35
2019-04-04T13:22:59.327Z,60.65
2019-04-04T13:25:33.593Z,60.67
2019-04-04T13:28:08.817Z,61.33
2019-04-04T13:30:43.044Z,61.77
2019-04-04T13:33:16.036Z,62.65
2019-04-04T13:35:49.162Z,62.97
2019-04-04T13:38:22.967Z,62.90
2019-04-04T13:40:56.907Z,62.28
2019-04-04T13:43:30.450Z,62.53
2019-04-04T13:46:03.313Z,62.87
2019-04-04T13:48:38.094Z,63.27
2019-04-04T13:51:11.458Z,63.13
2019-04-04T13:53:44.778Z,62.80
2019-04-04T13:56:17.531Z,61.80
2019-04-04T13:58:51.545Z,62.37
2019-04-04T14:01:25.596Z,61.63
2019-04-04T14:04:01.027Z,62.47
2019-04-04T14:06:34.856Z,62.18
2019-04-04T14:09:12.467Z,63.14
2019-04-04T14:11:45.696Z,63.20
2019-04-04T14:14:19.398Z,64.07
2019-04-04T14:16:56.215Z,64.11
2019-04-04T14:19:31.555Z,64.42
2019-04-04T14:22:05.861Z,64.79
2019-04-04T14:24:40.141Z,65.05
2019-04-04T14:27:14.103Z,65.13
2019-04-04T14:29:47.439Z,65.22
2019-04-04T14:32:21.083Z,65.96
2019-04-04T14:34:53.422Z,66.49
2019-04-04T14:37:33.554Z,67.23
2019-04-04T14:40:09.148Z,66.66
2019-04-04T14:42:42.942Z,67.05
2019-04-04T14:45:16.384Z,67.42
2019-04-04T14:47:49.358Z,67.71
2019-04-04T14:50:22.842Z,67.67
2019-04-04T14:52:57.813Z,67.61
2019-04-04T14:55:31.470Z,68.69
2019-04-04T14:58:05.809Z,68.89
2019-04-04T15:00:39.960Z,69.00
2019-04-04T15:03:15.263Z,68.86
2019-04-04T15:05:48.729Z,68.99
2019-04-04T15:08:22.684Z,69.46
2019-04-04T15:10:56.554Z,69.31
2019-04-04T15:13:34.504Z,69.88
2019-04-04T15:16:29.066Z,70.34
2019-04-04T15:19:02.097Z,71.13
2019-04-04T15:21:35.191Z,71.75
2019-04-04T15:24:07.646Z,71.85
2019-04-04T15:26:43.488Z,72.59
2019-04-04T15:29:18.606Z,72.68
2019-04-04T15:31:54.525Z,73.39
2019-04-04T15:34:28.783Z,72.82
2019-04-04T15:37:01.691Z,73.32
2019-04-04T15:39:34.398Z,73.13
2019-04-04T15:42:07.768Z,72.94
2019-04-04T15:44:41.481Z,72.54
2019-04-04T15:47:15.998Z,72.38
2019-04-04T15:49:56.162Z,72.87
2019-04-04T15:52:33.749Z,72.76
2019-04-04T15:55:08.887Z,73.33
2019-04-04T15:57:44.796Z,73.27
2019-04-04T16:00:21.712Z,73.04
2019-04-04T16:02:58.509Z,73.20
2019-04-04T16:05:32.645Z,73.12
2019-04-04T16:08:06.275Z,73.17
2019-04-04T16:10:41.179Z,73.72
2019-04-04T16:13:15.850Z,74.27
2019-04-04T16:15:50.353Z,74.16
2019-04-04T16:18:23.671Z,74.98
2019-04-04T16:20:56.810Z,74.61
2019-04-04T16:23:30.113Z,74.87
2019-04-04T16:26:03.271Z,75.10
2019-04-04T16:28:39.200Z,74.78
2019-04-04T16:31:13.816Z,74.54
2019-04-04T16:33:48.995Z,75.10
2019-04-04T16:36:27.336Z,75.08
2019-04-04T16:39:01.161Z,75.96
2019-04-04T16:41:37.494Z,76.63
2019-04-04T16:44:16.606Z,76.64
2019-04-04T16:46:50.756Z,76.33
2019-04-04T16:49:24.057Z,76.55
2019-04-04T16:51:57.188Z,76.86
2019-04-04T16:54:30.589Z,77.31
2019-04-04T16:57:02.237Z,77.29
2019-04-04T16:59:36.353Z,77.72
2019-04-04T17:02:10.166Z,77.82
2019-04-04T17:04:43.999Z,78.45
2019-04-04T17:07:17.848Z,77.94
2019-04-04T17:09:51.928Z,78.58
2019-04-04T17:12:25.585Z,78.90
2019-04-04T17:14:59.308Z,79.18
2019-04-04T17:17:32.584Z,79.67
2019-04-04T17:20:05.797Z,80.07
2019-04-04T17:22:39.855Z,79.89
2019-04-04T17:25:16.090Z,80.44
2019-04-04T17:27:49.519Z,81.36
2019-04-04T17:30:24.221Z,81.70
2019-04-04T17:32:57.940Z,81.66
2019-04-04T17:35:31.595Z,82.06
2019-04-04T17:38:04.855Z,81.99
2019-04-04T17:40:39.035Z,83.29
2019-04-04T17:43:12.802Z,82.95
2019-04-04T17:45:47.765Z,83.10
2019-04-04T17:48:21.404Z,83.17
2019-04-04T17:50:55.517Z,83.29
2019-04-04T17:53:28.279Z,83.29
2019-04-04T17:56:01.881Z,83.86
2019-04-04T17:58:36.784Z,83.70
2019-04-04T18:01:11.726Z,83.66
2019-04-04T18:03:44.799Z,83.91
2019-04-04T18:06:18.481Z,84.13
2019-04-04T18:08:51.812Z,83.39
2019-04-04T18:11:25.190Z,83.93
2019-04-04T18:13:58.779Z,84.02
2019-04-04T18:16:32.928Z,84.00
2019-04-04T18:19:07.476Z,84.58
2019-04-04T18:21:41.186Z,85.00
2019-04-04T18:24:15.672Z,85.07
2019-04-04T18:26:50.559Z,85.48
2019-04-04T18:29:23.928Z,85.78
2019-04-04T18:31:56.676Z,85.87
2019-04-04T18:34:30.333Z,85.99
2019-04-04T18:37:05.802Z,86.55
2019-04-04T18:39:39.762Z,86.17
2019-04-04T18:42:14.195Z,86.83
2019-04-04T18:44:47.537Z,86.92
2019-04-04T18:47:20.397Z,87.16
2019-04-04T18:49:53.852Z,87.04
2019-04-04T18:52:26.796Z,87.66
2019-04-04T18:55:00.767Z,87.69
2019-04-04T18:57:34.363Z,87.79
2019-04-04T19:00:10.460Z,88.14
2019-04-04T19:02:44.884Z,88.73
2019-04-04T19:05:21.107Z,89.14
2019-04-04T19:07:54.903Z,89.37
2019-04-04T19:10:28.283Z,89.68
2019-04-04T19:13:05.708Z,89.88
2019-04-04T19:15:36.936Z,90.40
2019-04-04T19:18:11.688Z,90.99
2019-04-04T19:20:45.103Z,91.38
2019-04-04T19:23:17.178Z,91.21
2019-04-04T19:25:50.776Z,91.52
2019-04-04T19:28:25.760Z,91.22
2019-04-04T19:30:59.456Z,91.93
2019-04-04T19:33:32.623Z,91.79
2019-04-04T19:36:07.991Z,92.69
2019-04-04T19:38:41.696Z,92.58
2019-04-04T19:41:16.307Z,92.73
2019-04-04T19:43:50.050Z,93.26
2019-04-04T19:46:36.274Z,93.37
2019-04-04T19:48:59.628Z,93.99
2019-04-04T19:51:33.713Z,94.63
2019-04-04T19:54:07.774Z,94.59
2019-04-04T19:56:41.368Z,94.83
2019-04-04T19:59:15.367Z,95.70
2019-04-04T20:01:49.390Z,95.92
2019-04-04T20:04:23.357Z,96.44
2019-04-04T20:07:03.434Z,96.83
2019-04-04T20:09:35.699Z,97.09
2019-04-04T20:12:08.882Z,98.12
2019-04-04T20:14:42.044Z,97.92
2019-04-04T20:17:15.044Z,98.64
2019-04-04T20:19:49.527Z,98.75
2019-04-04T20:22:22.892Z,98.37
2019-04-04T20:24:57.478Z,98.74
2019-04-04T20:27:30.724Z,99.14
2019-04-04T20:30:04.874Z,99.31
2019-04-04T20:32:39.037Z,99.71
2019-04-04T20:35:13.882Z,100.00
2019-04-04T20:37:47.162Z,100.00
2019-04-04T20:40:20.238Z,99.69
2019-04-04T20:42:53.697Z,100.00
2019-04-04T20:45:27.434Z,100.00
2019-04-04T20:48:00.934Z,100.00
2019-04-04T20:50:32.093Z,100.00
2019-04-04T20:53:04.803Z,100.00
2019-04-04T20:55:38.003Z,100.00
2019-04-04T20:58:11.657Z,100.00
2019-04-04T21:00:45.501Z,100.00
2019-04-04T21:03:18.622Z,100.00
2019-04-04T21:05:52.017Z,100.00
2019-04-04T21:08:25.697Z,100.00
2019-04-04T21:10:59.769Z,100.00
2019-04-04T21:13:33.543Z,100.00
2019-04-04T21:16:07.068Z,100.00
2019-04-04T21:18:38.161Z,100.00
2019-04-04T21:21:12.263Z,100.00
2019-04-04T21:23:45.608Z,100.00
2019-04-04T21:26:19.071Z,100.00
2019-04-04T21:28:52.480Z,100.00
2019-04-04T21:31:26.143Z,100.00
2019-04-04T21:34:00.258Z,100.00
2019-04-04T21:36:33.912Z,100.00
2019-04-04T21:39:08.877Z,100.00
2019-04-04T21:41:42.814Z,100.00
2019-04-04T21:44:16.816Z,100.00
2019-04-04T21:46:50.640Z,100.00
2019-04-04T21:49:24.418Z,100.00
2019-04-04T21:51:57.787Z,100.00
2019-04-04T21:54:30.918Z,100.00
2019-04-04T21:57:04.324Z,100.00
2019-04-04T21:59:36.510Z,100.00
2019-04-04T22:02:09.651Z,100.00
2019-04-04T22:04:42.851Z,100.00
2019-04-04T22:07:16.380Z,100.00
2019-04-04T22:09:53.726Z,100.00
2019-04-04T22:12:28.302Z,100.00
2019-04-04T22:15:01.669Z,100.00
2019-04-04T22:17:35.135Z,100.00
2019-04-04T22:20:09.729Z,100.00
2019-04-04T22:22:43.994Z,100.00
2019-04-04T22:25:17.941Z,100.00
2019-04-04T22:27:50.980Z,100.00
2019-04-04T22:30:24.695Z,100.00
2019-04-04T22:33:01.703Z,100.00
2019-04-04T22:35:34.279Z,100.00
2019-04-04T22:38:05.948Z,100.00
2019-04-04T22:40:39.032Z,100.00
2019-04-04T22:43:13.755Z,100.00
2019-04-04T22:45:46.687Z,100.00
2019-04-04T22:48:20.072Z,100.00
2019-04-04T22:50:53.751Z,100.00
2019-04-04T22:53:27.193Z,100.00
2019-04-04T22:56:00.268Z,100.00
2019-04-04T22:58:33.358Z,100.00
2019-04-04T23:01:06.871Z,100.00
2019-04-04T23:03:40.778Z,100.00
2019-04-04T23:06:14.249Z,100.00
2019-04-04T23:08:46.684Z,100.00
2019-04-04T23:11:19.696Z,100.00
2019-04-04T23:13:52.840Z,100.00
2019-04-04T23:16:24.275Z,100.00
2019-04-04T23:18:56.972Z,100.00
2019-04-04T23:21:30.334Z,100.00
2019-04-04T23:24:04.449Z,100.00
2019-04-04T23:26:37.974Z,100.00
2019-04-04T23:29:09.010Z,100.00
2019-04-04T23:31:41.625Z,100.00
2019-04-04T23:34:15.161Z,100.00
2019-04-04T23:36:49.032Z,100.00
2019-04-04T23:39:22.326Z,100.00
2019-04-04T23:41:55.776Z,100.00
2019-04-04T23:44:29.165Z,100.00
2019-04-04T23:47:01.890Z,100.00
2019-04-04T23:49:35.400Z,100.00
2019-04-04T23:52:09.556Z,100.00
2019-04-04T23:54:43.205Z,100.00
2019-04-04T23:57:16.764Z,100.00
2019-04-04T23:59:48.160Z,100.00
